createdAt,value
2023-03-29T00:01:52.245Z,3.10
2023-03-29T00:05:34.947Z,3.00
2023-03-29T00:09:35.271Z,3.40
2023-03-29T00:12:55.382Z,3.50
2023-03-29T00:16:23.161Z,3.10
2023-03-29T00:20:03.270Z,3.20
2023-03-29T00:23:54.054Z,3.10
2023-03-29T00:27:37.441Z,3.30
2023-03-29T00:31:19.752Z,2.90
2023-03-29T00:34:52.126Z,3.10
2023-03-29T00:38:33.958Z,3.10
2023-03-29T00:42:14.929Z,3.70
2023-03-29T00:45:45.065Z,3.40
2023-03-29T00:49:51.709Z,4.00
2023-03-29T00:53:12.634Z,3.80
2023-03-29T00:56:51.555Z,3.80
2023-03-29T01:00:37.182Z,3.80
2023-03-29T01:15:12.976Z,4.50
2023-03-29T01:17:55.762Z,3.60
2023-03-29T01:32:52.821Z,4.20
2023-03-29T01:46:31.720Z,3.80
2023-03-29T02:00:24.222Z,5.10
2023-03-29T02:03:23.501Z,5.30
2023-03-29T02:17:19.836Z,5.10
2023-03-29T02:31:28.778Z,4.50
2023-03-29T02:48:46.548Z,4.70
2023-03-29T03:03:03.248Z,4.80
2023-03-29T03:34:39.999Z,4.50
2023-03-29T04:04:14.641Z,4.30
2023-03-29T04:07:24.797Z,4.60
2023-03-29T04:10:42.011Z,4.80
2023-03-29T04:14:37.811Z,4.90
2023-03-29T04:28:55.235Z,5.40
2023-03-29T04:31:32.333Z,5.20
2023-03-29T04:35:12.483Z,4.70
2023-03-29T04:43:46.798Z,5.10
2023-03-29T04:47:37.396Z,5.30
2023-03-29T04:51:22.515Z,5.50
2023-03-29T05:06:14.316Z,5.70
2023-03-29T05:08:55.624Z,5.60
2023-03-29T05:24:19.776Z,5.70
2023-03-29T05:51:12.560Z,5.10
2023-03-29T05:54:02.172Z,4.60
2023-03-29T05:57:38.919Z,12.10
2023-03-29T06:00:24.261Z,13.00
2023-03-29T06:02:52.972Z,7.40
2023-03-29T06:05:20.942Z,9.40
2023-03-29T06:07:49.262Z,7.00
2023-03-29T06:10:18.098Z,5.70
2023-03-29T06:12:47.280Z,6.10
2023-03-29T06:15:16.382Z,5.90
2023-03-29T06:17:47.477Z,7.10
2023-03-29T06:20:15.530Z,5.60
2023-03-29T06:22:47.862Z,6.20
2023-03-29T06:25:17.789Z,5.90
2023-03-29T06:27:49.603Z,6.20
2023-03-29T06:30:20.474Z,8.70
2023-03-29T06:32:52.163Z,5.90
2023-03-29T06:35:20.745Z,5.60
2023-03-29T06:37:53.751Z,5.30
2023-03-29T06:40:21.687Z,5.60
2023-03-29T06:42:51.048Z,5.10
2023-03-29T06:45:32.819Z,5.60
2023-03-29T06:48:02.162Z,7.00
2023-03-29T06:50:31.445Z,5.50
2023-03-29T06:57:05.828Z,5.70
2023-03-29T06:59:56.928Z,5.10
2023-03-29T07:02:24.914Z,5.20
2023-03-29T07:04:52.845Z,5.20
2023-03-29T07:07:27.878Z,5.20
2023-03-29T07:09:55.868Z,5.00
2023-03-29T07:12:24.184Z,5.70
2023-03-29T07:27:03.454Z,4.40
2023-03-29T07:29:31.699Z,4.90
2023-03-29T07:31:58.510Z,4.70
2023-03-29T07:34:25.100Z,5.40
2023-03-29T07:36:52.014Z,5.50
2023-03-29T07:39:18.727Z,4.80
2023-03-29T07:41:45.404Z,4.90
2023-03-29T07:44:29.840Z,4.60
2023-03-29T07:47:15.099Z,4.60
2023-03-29T07:49:41.722Z,4.30
2023-03-29T07:52:08.521Z,4.60
2023-03-29T07:54:35.069Z,4.50
2023-03-29T07:57:01.849Z,4.50
2023-03-29T07:59:28.436Z,3.90
2023-03-29T08:01:55.005Z,4.50
2023-03-29T08:04:22.580Z,4.30
2023-03-29T08:06:49.370Z,4.30
2023-03-29T08:11:41.048Z,3.40
2023-03-29T08:15:20.448Z,3.40
2023-03-29T08:19:20.806Z,3.30
2023-03-29T08:33:29.714Z,4.80
2023-03-29T08:36:00.198Z,4.40
2023-03-29T08:39:03.272Z,4.90
2023-03-29T08:42:03.821Z,4.20
2023-03-29T08:44:35.167Z,3.80
2023-03-29T08:49:17.823Z,3.30
2023-03-29T08:52:00.194Z,3.50
2023-03-29T08:54:40.768Z,3.60
2023-03-29T08:57:17.949Z,3.80
2023-03-29T08:59:48.909Z,3.50
2023-03-29T09:03:10.952Z,2.90
2023-03-29T09:06:40.995Z,3.40
2023-03-29T09:09:59.706Z,2.80
2023-03-29T09:14:28.478Z,3.10
2023-03-29T09:17:13.824Z,3.00
2023-03-29T09:19:58.331Z,3.10
2023-03-29T09:26:55.646Z,3.20
2023-03-29T09:30:17.647Z,3.20
2023-03-29T09:47:22.734Z,2.10
2023-03-29T09:51:07.939Z,2.60
2023-03-29T09:54:37.400Z,2.40
2023-03-29T09:58:20.043Z,2.20
2023-03-29T10:27:06.626Z,2.00
2023-03-29T11:27:49.398Z,2.70
2023-03-29T12:04:23.145Z,2.30
2023-03-29T12:21:46.728Z,2.70
2023-03-29T12:36:16.031Z,2.80
2023-03-29T12:39:05.689Z,2.80
2023-03-29T12:41:56.427Z,2.80
2023-03-29T12:44:24.030Z,3.10
2023-03-29T12:46:54.518Z,3.10
2023-03-29T12:49:43.405Z,3.30
2023-03-29T12:53:04.798Z,3.10
2023-03-29T12:55:44.257Z,3.20
2023-03-29T13:29:38.451Z,3.10
2023-03-29T13:33:03.869Z,3.20
2023-03-29T13:40:19.241Z,3.20
2023-03-29T14:03:50.725Z,2.40
2023-03-29T14:24:52.421Z,2.20
2023-03-29T14:44:06.063Z,1.90
2023-03-29T14:47:31.850Z,2.10
2023-03-29T15:35:38.837Z,2.60
2023-03-29T15:38:50.145Z,2.60
2023-03-29T15:42:03.614Z,2.70
2023-03-29T15:57:17.564Z,3.00
2023-03-29T16:10:53.538Z,3.70
2023-03-29T16:13:53.273Z,3.50
2023-03-29T16:17:30.723Z,3.00
2023-03-29T16:21:04.933Z,3.10
2023-03-29T16:23:32.920Z,3.20
2023-03-29T16:26:01.012Z,3.00
2023-03-29T16:28:28.913Z,3.30
2023-03-29T16:30:56.792Z,3.50
2023-03-29T16:33:24.861Z,3.90
2023-03-29T16:35:57.255Z,3.40
2023-03-29T16:38:26.082Z,3.70
2023-03-29T16:40:54.023Z,3.70
2023-03-29T16:43:21.887Z,3.50
2023-03-29T16:45:54.796Z,3.20
2023-03-29T16:48:23.978Z,3.80
2023-03-29T16:50:51.881Z,3.30
2023-03-29T16:53:21.620Z,3.60
2023-03-29T16:55:49.903Z,3.30
2023-03-29T16:58:18.132Z,3.60
2023-03-29T17:00:48.294Z,3.60
2023-03-29T17:03:17.021Z,3.70
2023-03-29T17:05:50.293Z,3.70
2023-03-29T17:08:23.216Z,4.30
2023-03-29T17:10:55.675Z,3.40
2023-03-29T17:13:24.141Z,3.80
2023-03-29T17:15:53.725Z,3.80
2023-03-29T17:18:23.357Z,3.50
2023-03-29T17:40:21.906Z,3.30
2023-03-29T17:43:02.320Z,3.20
2023-03-29T17:46:38.086Z,3.80
2023-03-29T17:50:34.116Z,3.60
2023-03-29T17:53:57.254Z,4.00
2023-03-29T17:57:38.985Z,4.80
2023-03-29T18:01:13.497Z,5.50
2023-03-29T18:04:52.565Z,4.90
2023-03-29T18:14:37.663Z,6.70
2023-03-29T18:17:51.691Z,6.60
2023-03-29T18:20:20.977Z,7.60
2023-03-29T18:22:49.411Z,7.30
2023-03-29T18:29:47.401Z,7.00
2023-03-29T18:44:48.513Z,6.60
2023-03-29T18:47:37.102Z,7.10
2023-03-29T18:50:30.473Z,7.20
2023-03-29T18:52:58.605Z,7.20
2023-03-29T18:55:27.641Z,7.90
2023-03-29T18:57:56.413Z,8.20
2023-03-29T19:00:24.845Z,15.90
2023-03-29T19:02:54.171Z,24.20
2023-03-29T19:05:23.269Z,11.30
2023-03-29T19:07:54.802Z,9.30
2023-03-29T19:10:26.330Z,10.10
2023-03-29T19:12:54.507Z,10.60
2023-03-29T19:15:22.783Z,11.50
2023-03-29T19:17:50.979Z,11.20
2023-03-29T19:21:52.959Z,10.70
2023-03-29T19:25:28.801Z,10.70
2023-03-29T19:27:57.708Z,11.30
2023-03-29T19:30:26.044Z,52.90
2023-03-29T19:32:57.588Z,11.40
2023-03-29T19:35:30.037Z,11.60
2023-03-29T19:37:58.032Z,10.70
2023-03-29T19:40:28.897Z,11.20
2023-03-29T19:42:57.014Z,12.40
2023-03-29T19:45:30.179Z,12.90
2023-03-29T19:48:24.686Z,12.90
2023-03-29T19:50:52.928Z,12.20
2023-03-29T19:53:25.655Z,12.80
2023-03-29T19:55:53.705Z,13.60
2023-03-29T20:00:04.054Z,11.60
2023-03-29T20:03:37.764Z,11.60
2023-03-29T20:06:59.470Z,12.20
2023-03-29T20:09:27.875Z,12.70
2023-03-29T20:11:55.858Z,13.40
2023-03-29T20:14:23.937Z,14.00
2023-03-29T20:16:54.227Z,14.30
2023-03-29T20:22:00.923Z,12.90
2023-03-29T20:25:50.960Z,14.30
2023-03-29T20:39:45.517Z,15.10
2023-03-29T20:53:44.655Z,17.00
2023-03-29T20:56:26.411Z,16.40
2023-03-29T21:00:12.338Z,16.70
2023-03-29T21:04:14.260Z,17.10
2023-03-29T21:18:20.819Z,16.50
2023-03-29T21:21:08.013Z,17.10
2023-03-29T21:25:24.119Z,17.90
2023-03-29T21:28:28.555Z,17.50
2023-03-29T21:32:11.470Z,18.40
2023-03-29T21:35:50.679Z,17.80
2023-03-29T21:39:55.936Z,18.20
2023-03-29T21:43:07.852Z,18.30
2023-03-29T21:47:08.622Z,18.90
2023-03-29T21:50:37.267Z,18.00
2023-03-29T21:54:04.237Z,18.60
2023-03-29T21:57:41.652Z,19.70
2023-03-29T22:01:15.227Z,20.00
2023-03-29T22:15:36.020Z,21.80
2023-03-29T22:18:14.793Z,20.50
2023-03-29T22:22:01.848Z,21.20
2023-03-29T22:25:31.911Z,20.50
2023-03-29T22:39:41.718Z,23.30
2023-03-29T22:42:27.137Z,22.10
2023-03-29T22:46:11.772Z,23.50
2023-03-29T22:49:44.725Z,24.80
2023-03-29T22:53:25.772Z,23.80
2023-03-29T22:57:08.481Z,22.60
2023-03-29T23:00:43.222Z,21.90
2023-03-29T23:04:44.818Z,22.20
2023-03-29T23:08:05.356Z,21.60
2023-03-29T23:22:22.138Z,18.70
2023-03-29T23:25:15.125Z,18.70
2023-03-29T23:28:54.912Z,18.70
2023-03-29T23:33:16.671Z,18.40
2023-03-29T23:36:56.525Z,17.80
2023-03-29T23:40:33.620Z,18.10
2023-03-29T23:44:11.519Z,17.50
2023-03-29T23:48:04.508Z,17.90
2023-03-29T23:51:28.458Z,17.80
